Time;durP1;ratioP1;P1;durP2;ratioP2;P2;SDS_P1;SDS_P2;PMS_P1;PMS_P2;Temp;Humidity;BMP_temperature;BMP_pressure;BME280_temperature;BME280_humidity;BME280_pressure;Samples;Min_cycle;Max_cycle;Signal;HPM_P1;HPM_P2
2021/12/11 00:00:35;;;;;;;20.90;14.50;;;2.90;1.00;;;;;;5048382;28;20496;-63
2021/12/11 00:03:17;;;;;;;22.50;15.53;;;2.90;1.00;;;;;;5046143;28;20497;-62
2021/12/11 00:05:56;;;;;;;22.70;14.67;;;2.80;1.00;;;;;;5046358;28;20617;-64
2021/12/11 00:08:26;;;;;;;18.33;14.30;;;2.90;1.00;;;;;;5048868;28;20460;-63
2021/12/11 00:10:57;;;;;;;21.10;14.77;;;2.80;1.00;;;;;;5048589;28;20432;-63
2021/12/11 00:13:29;;;;;;;19.77;14.40;;;2.80;1.00;;;;;;5043695;28;20467;-63
2021/12/11 00:15:55;;;;;;;20.13;14.53;;;2.70;1.00;;;;;;5044915;28;20443;-63
2021/12/11 00:18:27;;;;;;;23.67;15.57;;;2.70;1.00;;;;;;5050045;28;20460;-64
2021/12/11 00:20:57;;;;;;;21.10;15.90;;;2.60;1.00;;;;;;5048750;28;20440;-63
2021/12/11 00:23:30;;;;;;;21.07;15.30;;;2.60;1.00;;;;;;5048865;28;21036;-63
2021/12/11 00:25:56;;;;;;;19.93;14.50;;;2.60;1.00;;;;;;5047745;28;20452;-62
2021/12/11 00:28:22;;;;;;;20.87;15.43;;;2.60;1.00;;;;;;5048980;28;20582;-63
2021/12/11 00:30:48;;;;;;;22.73;14.50;;;2.70;1.00;;;;;;5051483;28;20867;-63
2021/12/11 00:33:25;;;;;;;23.30;15.40;;;2.60;1.00;;;;;;5049768;28;20273;-63
2021/12/11 00:35:53;;;;;;;20.13;14.60;;;2.70;1.00;;;;;;5052503;28;20442;-63
2021/12/11 00:38:32;;;;;;;20.63;14.53;;;2.70;1.00;;;;;;5050532;28;20513;-63
2021/12/11 00:41:00;;;;;;;21.80;16.00;;;2.60;1.00;;;;;;5050387;28;20502;-63
2021/12/11 00:43:29;;;;;;;18.37;14.53;;;2.60;1.00;;;;;;5051014;28;20772;-63
2021/12/11 00:45:57;;;;;;;19.50;14.50;;;2.60;1.00;;;;;;5050207;28;20490;-62
2021/12/11 00:48:26;;;;;;;25.30;16.00;;;2.60;1.00;;;;;;5051143;28;20471;-63
2021/12/11 00:51:00;;;;;;;21.03;14.87;;;2.60;1.00;;;;;;5050862;28;20499;-62
2021/12/11 00:53:31;;;;;;;21.30;14.67;;;2.60;1.00;;;;;;5050167;28;20968;-62
2021/12/11 00:56:01;;;;;;;21.10;14.97;;;2.50;1.00;;;;;;5049342;28;20451;-62
2021/12/11 00:58:31;;;;;;;23.87;16.73;;;2.50;1.00;;;;;;5052143;28;20449;-63
2021/12/11 01:01:03;;;;;;;21.47;15.57;;;2.40;1.00;;;;;;5052503;28;20447;-62
2021/12/11 01:03:37;;;;;;;20.50;15.00;;;2.50;1.00;;;;;;5054360;28;20451;-62
2021/12/11 01:06:10;;;;;;;23.73;15.73;;;2.40;1.00;;;;;;5053791;28;20447;-62
2021/12/11 01:08:42;;;;;;;20.00;14.07;;;2.50;1.00;;;;;;5051824;28;20472;-61
2021/12/11 01:11:25;;;;;;;25.83;17.20;;;2.40;1.00;;;;;;5049175;28;21112;-62
2021/12/11 01:14:25;;;;;;;21.10;13.73;;;2.40;1.00;;;;;;5052301;28;20486;-61
2021/12/11 01:17:04;;;;;;;25.90;14.97;;;2.30;1.00;;;;;;5052016;28;20517;-62
2021/12/11 01:19:36;;;;;;;21.80;14.70;;;2.40;1.00;;;;;;5049864;28;20852;-61
2021/12/11 01:22:11;;;;;;;21.53;14.83;;;2.30;1.00;;;;;;5053198;28;20542;-61
2021/12/11 01:24:45;;;;;;;23.80;16.40;;;2.30;1.00;;;;;;5053669;28;20511;-61
2021/12/11 01:27:17;;;;;;;20.60;14.90;;;2.30;1.00;;;;;;5053314;28;21040;-62
2021/12/11 01:29:44;;;;;;;18.80;14.03;;;2.30;1.00;;;;;;5051954;28;21085;-62
2021/12/11 01:32:12;;;;;;;20.20;14.77;;;2.30;1.00;;;;;;5045199;28;20459;-62
2021/12/11 01:34:39;;;;;;;21.47;14.20;;;2.30;1.00;;;;;;5050389;28;20571;-62
2021/12/11 01:37:06;;;;;;;23.30;15.57;;;2.30;1.00;;;;;;5053857;28;20441;-61
2021/12/11 01:39:36;;;;;;;22.40;15.20;;;2.30;1.00;;;;;;5051837;28;20499;-61
2021/12/11 01:42:18;;;;;;;25.90;16.47;;;2.30;1.00;;;;;;5048784;28;20542;-62
2021/12/11 01:44:46;;;;;;;20.63;15.60;;;2.20;1.00;;;;;;5049982;28;20444;-61
2021/12/11 01:47:16;;;;;;;22.30;15.80;;;2.20;1.00;;;;;;5052382;28;20476;-61
2021/12/11 01:49:44;;;;;;;21.23;15.53;;;2.10;1.00;;;;;;5050513;28;20475;-62
2021/12/11 01:52:19;;;;;;;26.13;15.70;;;2.10;1.00;;;;;;5061018;28;20476;-61
2021/12/11 01:54:46;;;;;;;24.40;16.30;;;2.20;1.00;;;;;;5049798;28;20456;-62
2021/12/11 01:57:23;;;;;;;27.37;17.70;;;2.10;1.00;;;;;;5054868;28;20442;-61
2021/12/11 02:00:12;;;;;;;24.30;16.13;;;2.20;1.00;;;;;;5054361;28;20475;-62
2021/12/11 02:02:45;;;;;;;21.23;16.10;;;2.20;1.00;;;;;;5048697;28;20452;-62
2021/12/11 02:05:13;;;;;;;21.73;15.30;;;2.10;1.00;;;;;;5051446;28;20461;-62
2021/12/11 02:07:46;;;;;;;21.60;16.00;;;1.90;1.00;;;;;;5050854;28;20471;-62
2021/12/11 02:10:24;;;;;;;24.07;16.37;;;1.90;1.00;;;;;;5048834;28;20541;-60
2021/12/11 02:12:51;;;;;;;25.83;16.50;;;1.90;1.00;;;;;;5046323;28;20470;-62
2021/12/11 02:15:26;;;;;;;21.63;15.17;;;1.80;1.00;;;;;;5050722;28;20890;-61
2021/12/11 02:18:12;;;;;;;25.40;17.03;;;1.70;1.00;;;;;;5051706;28;20531;-61
2021/12/11 02:20:45;;;;;;;26.53;17.53;;;1.60;1.00;;;;;;5050955;28;20486;-62
2021/12/11 02:23:13;;;;;;;25.37;16.70;;;1.60;1.00;;;;;;5051516;28;20450;-63
2021/12/11 02:25:46;;;;;;;28.97;16.73;;;1.60;1.00;;;;;;5052897;28;20448;-62
2021/12/11 02:28:29;;;;;;;26.43;17.30;;;1.50;1.00;;;;;;5048990;28;20837;-61
2021/12/11 02:31:11;;;;;;;23.53;16.00;;;1.50;1.00;;;;;;5052777;28;20442;-62
2021/12/11 02:33:45;;;;;;;25.33;15.90;;;1.50;1.00;;;;;;5049114;28;20801;-61
2021/12/11 02:36:23;;;;;;;24.97;17.47;;;1.50;1.00;;;;;;5046556;28;20475;-62
2021/12/11 02:39:17;;;;;;;25.37;16.53;;;1.50;1.00;;;;;;5049456;28;20448;-61
2021/12/11 02:41:49;;;;;;;23.00;16.10;;;1.40;1.00;;;;;;5051329;28;20454;-63
2021/12/11 02:44:50;;;;;;;27.90;17.70;;;1.30;1.00;;;;;;5048220;28;20478;-61
2021/12/11 02:47:26;;;;;;;27.67;17.13;;;1.30;1.00;;;;;;5050026;28;20525;-62
2021/12/11 02:49:56;;;;;;;24.37;15.00;;;1.30;1.00;;;;;;5051926;28;20447;-62
2021/12/11 02:52:44;;;;;;;25.40;16.33;;;1.30;1.00;;;;;;5048325;28;20521;-62
2021/12/11 02:55:23;;;;;;;30.40;18.60;;;1.30;1.00;;;;;;5049541;28;20440;-62
2021/12/11 02:57:57;;;;;;;27.93;17.60;;;1.30;1.00;;;;;;5048680;28;20965;-62
2021/12/11 03:00:29;;;;;;;28.47;16.60;;;1.30;1.00;;;;;;5046134;28;20444;-61
2021/12/11 03:03:05;;;;;;;24.63;16.10;;;1.30;1.00;;;;;;5048911;28;20991;-62
2021/12/11 03:05:45;;;;;;;22.70;15.40;;;1.30;1.00;;;;;;5045475;28;20497;-61
2021/12/11 03:08:15;;;;;;;26.50;15.97;;;1.20;1.00;;;;;;5047913;28;20478;-62
2021/12/11 03:10:42;;;;;;;23.40;15.87;;;1.10;1.00;;;;;;5047779;28;20456;-62
2021/12/11 03:13:08;;;;;;;24.10;17.03;;;;;;;;;;5046783;28;20455;-63
2021/12/11 03:15:34;;;;;;;26.50;16.30;;;1.00;1.00;;;;;;5047542;28;20461;-62
2021/12/11 03:18:01;;;;;;;30.90;17.50;;;0.90;1.00;;;;;;5048032;28;21322;-62
2021/12/11 03:20:27;;;;;;;24.40;16.93;;;0.90;1.00;;;;;;5048443;28;20445;-62
2021/12/11 03:22:53;;;;;;;24.97;16.10;;;1.00;1.00;;;;;;5048488;28;20955;-62
2021/12/11 03:25:24;;;;;;;26.67;17.13;;;1.00;1.00;;;;;;5051019;28;20174;-61
2021/12/11 03:27:49;;;;;;;24.30;16.70;;;0.90;1.00;;;;;;5050107;28;20252;-62
2021/12/11 03:30:22;;;;;;;26.80;17.00;;;0.90;1.00;;;;;;5053114;28;20471;-62
2021/12/11 03:32:53;;;;;;;24.37;16.67;;;0.90;1.00;;;;;;5048725;28;20181;-61
2021/12/11 03:35:19;;;;;;;24.83;16.00;;;0.80;1.00;;;;;;5045405;28;20456;-62
2021/12/11 03:37:45;;;;;;;25.27;18.17;;;0.80;1.00;;;;;;5048105;28;20451;-61
2021/12/11 03:40:12;;;;;;;26.80;17.70;;;0.80;1.00;;;;;;5049702;28;20520;-62
2021/12/11 03:42:40;;;;;;;26.40;17.27;;;0.70;1.00;;;;;;5054284;28;20545;-62
2021/12/11 03:45:13;;;;;;;24.93;16.37;;;0.70;1.00;;;;;;5051480;28;20446;-61
2021/12/11 03:47:48;;;;;;;23.10;15.50;;;0.70;1.00;;;;;;5046510;28;20573;-61
2021/12/11 03:50:15;;;;;;;22.23;15.30;;;0.80;1.00;;;;;;5050189;28;20442;-62
2021/12/11 03:52:43;;;;;;;24.00;16.20;;;0.80;1.00;;;;;;5049752;28;20445;-62
2021/12/11 03:55:12;;;;;;;31.20;18.43;;;0.70;1.00;;;;;;5053147;28;20441;-62
2021/12/11 03:57:38;;;;;;;25.60;18.40;;;;;;;;;;5041659;28;20807;-62
2021/12/11 04:00:09;;;;;;;28.87;17.77;;;0.70;1.00;;;;;;5043137;28;20550;-61
2021/12/11 04:02:37;;;;;;;27.63;17.50;;;0.80;1.00;;;;;;5052013;28;20941;-63
2021/12/11 04:05:07;;;;;;;23.90;17.30;;;0.80;1.00;;;;;;5047623;28;20814;-62
2021/12/11 04:07:37;;;;;;;28.30;16.70;;;0.80;1.00;;;;;;5048579;28;20808;-62
2021/12/11 04:10:05;;;;;;;30.90;18.50;;;0.70;1.00;;;;;;5055477;28;20454;-61
2021/12/11 04:12:31;;;;;;;24.23;15.23;;;0.70;1.00;;;;;;5046399;28;20451;-60
2021/12/11 04:14:56;;;;;;;26.80;17.40;;;0.70;1.00;;;;;;5040316;28;20476;-61
2021/12/11 04:17:26;;;;;;;25.97;16.87;;;0.70;1.00;;;;;;5049507;28;20208;-61
2021/12/11 04:19:55;;;;;;;28.57;17.83;;;0.80;1.00;;;;;;5046889;28;20274;-61
2021/12/11 04:22:22;;;;;;;29.10;17.87;;;0.80;1.00;;;;;;5048784;28;20457;-62
2021/12/11 04:24:48;;;;;;;25.77;17.80;;;0.80;1.00;;;;;;5049731;28;20449;-62
2021/12/11 04:27:17;;;;;;;28.97;19.10;;;0.80;1.00;;;;;;5049024;28;20558;-62
2021/12/11 04:29:48;;;;;;;24.17;15.80;;;0.90;1.00;;;;;;5052185;28;20564;-61
2021/12/11 04:32:14;;;;;;;25.40;16.93;;;0.80;1.00;;;;;;5048157;28;20455;-62
2021/12/11 04:34:41;;;;;;;33.10;17.67;;;0.80;1.00;;;;;;5047820;28;20459;-61
2021/12/11 04:37:16;;;;;;;27.27;17.13;;;0.80;1.00;;;;;;5051992;28;20543;-62
2021/12/11 04:39:48;;;;;;;28.20;16.80;;;0.90;1.00;;;;;;5050580;28;20536;-62
2021/12/11 04:42:37;;;;;;;31.20;18.33;;;0.80;1.00;;;;;;5047986;28;20447;-61
2021/12/11 04:45:06;;;;;;;28.93;17.90;;;0.80;1.00;;;;;;5048982;28;20501;-61
2021/12/11 04:50:04;;;;;;;28.73;17.57;;;0.80;1.00;;;;;;5050533;28;20449;-61
2021/12/11 04:52:38;;;;;;;23.00;16.60;;;0.80;1.00;;;;;;5048190;28;20558;-61
2021/12/11 04:57:56;;;;;;;24.00;17.60;;;0.80;1.00;;;;;;5049414;28;20478;-62
2021/12/11 05:01:10;;;;;;;35.77;18.90;;;0.80;1.00;;;;;;5047980;28;20457;-61
2021/12/11 05:06:16;;;;;;;26.47;17.57;;;0.80;1.00;;;;;;5047619;28;20778;-61
2021/12/11 05:11:35;;;;;;;27.10;17.70;;;0.70;1.00;;;;;;5049247;28;20444;-62
2021/12/11 05:14:02;;;;;;;25.80;17.40;;;0.70;1.00;;;;;;5049426;28;20447;-62
2021/12/11 05:16:29;;;;;;;25.70;16.23;;;0.70;1.00;;;;;;5047470;28;20542;-62
2021/12/11 05:18:54;;;;;;;28.33;17.20;;;0.70;1.00;;;;;;5049973;28;20448;-62
2021/12/11 05:21:21;;;;;;;29.40;17.10;;;0.70;1.00;;;;;;5058575;28;20453;-62
2021/12/11 05:23:50;;;;;;;24.70;17.47;;;0.70;1.00;;;;;;5055157;28;20447;-61
2021/12/11 05:26:16;;;;;;;24.20;17.70;;;0.70;1.00;;;;;;5055934;28;20527;-61
2021/12/11 05:28:42;;;;;;;29.67;18.40;;;0.60;1.00;;;;;;5050719;28;21107;-62
2021/12/11 05:31:10;;;;;;;28.03;17.73;;;0.60;1.00;;;;;;5054559;28;20356;-63
2021/12/11 05:33:37;;;;;;;28.00;18.07;;;0.70;1.00;;;;;;5057242;28;20181;-61
2021/12/11 05:36:06;;;;;;;28.67;18.70;;;0.60;1.00;;;;;;5041740;28;20447;-62
2021/12/11 05:38:35;;;;;;;29.80;19.63;;;0.70;1.00;;;;;;5051512;28;20948;-61
2021/12/11 05:41:04;;;;;;;27.43;18.33;;;0.80;1.00;;;;;;5048664;28;20450;-61
2021/12/11 05:43:31;;;;;;;24.73;17.37;;;0.70;1.00;;;;;;5046822;28;20450;-62
2021/12/11 05:45:57;;;;;;;23.43;16.10;;;0.60;1.00;;;;;;5048782;28;20456;-62
2021/12/11 05:48:24;;;;;;;30.60;17.57;;;0.50;1.00;;;;;;5051282;28;20826;-62
2021/12/11 05:50:53;;;;;;;25.50;16.13;;;0.50;1.00;;;;;;5051442;28;20245;-61
2021/12/11 05:53:20;;;;;;;25.13;16.37;;;0.40;1.00;;;;;;5053098;28;20859;-62
2021/12/11 05:55:48;;;;;;;26.57;17.63;;;0.50;1.00;;;;;;5051854;28;20446;-62
2021/12/11 05:58:24;;;;;;;26.53;17.40;;;0.40;1.00;;;;;;5051412;28;20957;-62
2021/12/11 06:00:51;;;;;;;26.20;17.10;;;0.40;1.00;;;;;;5050521;28;20442;-62
2021/12/11 06:03:17;;;;;;;30.80;18.70;;;0.60;1.00;;;;;;5045302;28;20466;-62
2021/12/11 06:05:44;;;;;;;26.47;16.53;;;0.50;1.00;;;;;;5053474;28;20451;-62
2021/12/11 06:08:11;;;;;;;28.20;19.00;;;0.50;1.00;;;;;;5047909;28;20509;-62
2021/12/11 06:10:39;;;;;;;29.73;17.67;;;0.30;1.00;;;;;;5052118;28;20439;-62
2021/12/11 06:13:06;;;;;;;25.57;16.33;;;0.40;1.00;;;;;;5047079;28;20475;-62
2021/12/11 06:15:32;;;;;;;31.70;17.77;;;0.40;1.00;;;;;;5047544;28;20811;-62
2021/12/11 06:17:59;;;;;;;27.80;17.27;;;;;;;;;;5052067;28;20534;-62
2021/12/11 06:20:27;;;;;;;30.43;18.27;;;0.50;1.00;;;;;;5052883;28;20454;-61
2021/12/11 06:22:53;;;;;;;30.97;18.33;;;0.40;1.00;;;;;;5051641;28;20471;-62
2021/12/11 06:25:24;;;;;;;25.03;17.30;;;0.30;1.00;;;;;;5045508;28;20498;-62
2021/12/11 06:27:50;;;;;;;25.57;17.00;;;0.40;1.00;;;;;;5048131;28;20505;-61
2021/12/11 06:30:17;;;;;;;23.60;16.37;;;0.30;1.00;;;;;;5049184;28;20806;-62
2021/12/11 06:32:44;;;;;;;28.40;17.50;;;0.30;1.00;;;;;;5050306;28;20184;-62
2021/12/11 06:35:19;;;;;;;30.90;17.77;;;0.30;1.00;;;;;;5060405;28;20450;-62
2021/12/11 06:37:45;;;;;;;23.80;16.87;;;0.30;1.00;;;;;;5051907;28;20944;-62
2021/12/11 06:40:11;;;;;;;30.93;17.53;;;0.30;1.00;;;;;;5049727;28;20450;-62
2021/12/11 06:42:37;;;;;;;33.13;19.83;;;0.30;1.00;;;;;;5056522;28;20273;-58
2021/12/11 06:45:04;;;;;;;29.20;17.53;;;0.40;1.00;;;;;;5060662;28;20876;-58
2021/12/11 06:47:29;;;;;;;22.60;15.37;;;0.30;1.00;;;;;;5055173;28;20206;-57
2021/12/11 06:49:55;;;;;;;27.67;18.60;;;0.40;1.00;;;;;;5049234;28;20474;-58
2021/12/11 06:52:23;;;;;;;27.90;18.00;;;0.40;1.00;;;;;;5046538;28;20195;-58
2021/12/11 06:54:51;;;;;;;27.57;16.63;;;0.30;1.00;;;;;;5047950;28;20184;-58
2021/12/11 06:57:17;;;;;;;26.83;18.33;;;0.30;1.00;;;;;;5048643;28;20477;-58
2021/12/11 06:59:43;;;;;;;24.83;16.87;;;0.30;1.00;;;;;;5049448;28;20462;-58
2021/12/11 07:02:09;;;;;;;28.23;18.10;;;0.30;1.00;;;;;;5048761;28;20469;-58
2021/12/11 07:04:34;;;;;;;33.40;19.17;;;0.20;1.00;;;;;;5049558;28;21002;-57
2021/12/11 07:07:00;;;;;;;27.33;16.03;;;0.20;1.00;;;;;;5062425;28;20212;-59
2021/12/11 07:09:28;;;;;;;28.17;17.37;;;0.20;1.00;;;;;;5049299;28;20635;-58
2021/12/11 07:11:55;;;;;;;34.77;17.23;;;0.20;1.00;;;;;;5051205;28;20182;-59
2021/12/11 07:14:25;;;;;;;23.80;16.53;;;0.10;1.00;;;;;;5049004;28;20446;-57
2021/12/11 07:16:50;;;;;;;28.23;17.20;;;0.20;1.00;;;;;;5046977;28;20519;-57
2021/12/11 07:19:16;;;;;;;26.40;17.17;;;0.20;1.00;;;;;;5048174;28;21024;-60
2021/12/11 07:21:43;;;;;;;28.33;17.67;;;0.20;1.00;;;;;;5043986;28;20216;-56
2021/12/11 07:24:13;;;;;;;30.37;17.00;;;0.30;1.00;;;;;;5049504;28;20929;-58
2021/12/11 07:26:39;;;;;;;26.10;16.47;;;0.40;1.00;;;;;;5048223;28;20475;-57
2021/12/11 07:29:10;;;;;;;31.00;17.10;;;0.30;1.00;;;;;;5050567;28;20472;-58
2021/12/11 07:31:37;;;;;;;22.77;15.80;;;0.30;1.00;;;;;;5048647;28;20475;-58
2021/12/11 07:34:03;;;;;;;27.00;15.83;;;0.30;1.00;;;;;;5049233;28;20790;-59
2021/12/11 07:36:30;;;;;;;25.03;14.83;;;0.40;1.00;;;;;;5049721;28;20801;-59
2021/12/11 07:39:00;;;;;;;23.93;16.33;;;0.50;1.00;;;;;;5051094;28;20501;-57
2021/12/11 07:41:26;;;;;;;27.10;16.87;;;;;;;;;;5050374;28;20446;-57
2021/12/11 07:43:52;;;;;;;24.27;17.23;;;0.60;1.00;;;;;;5055646;28;20451;-59
2021/12/11 07:46:22;;;;;;;29.67;17.93;;;0.50;1.00;;;;;;5054357;28;20457;-57
2021/12/11 07:48:48;;;;;;;29.37;18.77;;;0.60;1.00;;;;;;5050249;28;20216;-58
2021/12/11 07:51:15;;;;;;;30.33;17.67;;;0.60;1.00;;;;;;5053761;28;20496;-58
2021/12/11 07:53:42;;;;;;;26.07;17.53;;;0.50;1.00;;;;;;5052255;28;20443;-57
2021/12/11 07:56:09;;;;;;;24.13;17.33;;;0.60;1.00;;;;;;5051402;28;20804;-57
2021/12/11 07:58:35;;;;;;;26.13;17.83;;;0.70;1.00;;;;;;5049371;28;20451;-58
2021/12/11 08:01:04;;;;;;;26.17;16.10;;;0.70;1.00;;;;;;5050952;28;20488;-56
2021/12/11 08:03:31;;;;;;;22.13;16.70;;;0.70;1.00;;;;;;5049853;28;20458;-58
2021/12/11 08:05:58;;;;;;;25.63;16.13;;;0.70;1.00;;;;;;5050591;28;20859;-58
2021/12/11 08:08:24;;;;;;;29.07;16.20;;;0.70;1.00;;;;;;5049742;28;20494;-57
2021/12/11 08:10:57;;;;;;;31.40;18.67;;;0.70;1.00;;;;;;5051113;28;20526;-59
2021/12/11 08:13:23;;;;;;;30.47;18.87;;;0.80;1.00;;;;;;5051486;28;20517;-57
2021/12/11 08:15:50;;;;;;;30.00;19.50;;;0.90;1.00;;;;;;5050861;28;20452;-58
2021/12/11 08:18:17;;;;;;;30.50;19.60;;;1.20;1.00;;;;;;5050302;28;20267;-58
2021/12/11 08:20:44;;;;;;;30.50;20.70;;;1.30;1.00;;;;;;5050193;28;20451;-57
2021/12/11 08:23:11;;;;;;;32.17;20.27;;;1.30;1.00;;;;;;5053715;28;20446;-57
2021/12/11 08:25:39;;;;;;;29.67;19.37;;;1.30;1.00;;;;;;5049381;28;20448;-58
2021/12/11 08:28:06;;;;;;;30.20;19.93;;;1.30;1.00;;;;;;5048472;28;20964;-58
2021/12/11 08:30:35;;;;;;;27.90;19.87;;;1.40;1.00;;;;;;5049517;28;20457;-57
2021/12/11 08:33:00;;;;;;;32.43;19.23;;;1.50;1.00;;;;;;5051877;28;20471;-58
2021/12/11 08:35:26;;;;;;;27.33;17.50;;;1.60;1.00;;;;;;5052737;28;20789;-57
2021/12/11 08:37:52;;;;;;;27.03;17.47;;;1.70;1.00;;;;;;5050245;28;20201;-58
2021/12/11 08:40:22;;;;;;;26.40;16.20;;;1.70;1.00;;;;;;5054238;28;20577;-57
2021/12/11 08:42:49;;;;;;;28.40;16.53;;;1.80;1.00;;;;;;5058500;28;20547;-58
2021/12/11 08:45:22;;;;;;;21.90;16.07;;;1.90;1.00;;;;;;5063689;28;20429;-58
2021/12/11 08:47:50;;;;;;;26.37;17.10;;;1.90;1.00;;;;;;5056400;28;20831;-60
2021/12/11 08:50:21;;;;;;;27.70;17.17;;;2.20;1.00;;;;;;5060636;28;20516;-59
2021/12/11 08:52:49;;;;;;;24.33;14.40;;;2.40;1.00;;;;;;5066755;28;20546;-59
2021/12/11 08:55:25;;;;;;;25.63;17.67;;;2.60;1.00;;;;;;5054050;28;20439;-58
2021/12/11 08:57:51;;;;;;;23.57;16.97;;;2.50;1.00;;;;;;5055337;28;20439;-58
2021/12/11 09:00:30;;;;;;;24.63;17.97;;;2.60;1.00;;;;;;5059315;28;20938;-58
2021/12/11 09:03:05;;;;;;;22.97;18.00;;;2.70;1.00;;;;;;5053511;28;20433;-57
2021/12/11 09:05:45;;;;;;;38.13;20.70;;;2.80;1.00;;;;;;5057506;28;20500;-59
2021/12/11 09:08:27;;;;;;;96.73;41.97;;;2.90;1.00;;;;;;5052386;28;20467;-58
2021/12/11 09:11:12;;;;;;;175.40;63.00;;;2.90;1.00;;;;;;5051424;28;20469;-58
2021/12/11 09:13:54;;;;;;;55.07;29.27;;;2.90;1.00;;;;;;5055102;28;20452;-59
2021/12/11 09:16:42;;;;;;;35.23;25.00;;;3.20;1.00;;;;;;5054484;28;20527;-59
2021/12/11 09:19:20;;;;;;;33.90;23.70;;;3.30;1.00;;;;;;5047999;28;20897;-57
2021/12/11 09:21:54;;;;;;;34.17;22.30;;;3.30;1.00;;;;;;5056050;28;20450;-60
2021/12/11 09:24:27;;;;;;;33.73;21.13;;;3.40;1.00;;;;;;5061552;28;20591;-58
2021/12/11 09:27:12;;;;;;;30.27;21.00;;;3.40;1.00;;;;;;5059260;28;20543;-59
2021/12/11 09:29:49;;;;;;;25.97;19.30;;;3.20;1.00;;;;;;5050551;28;20476;-60
2021/12/11 09:32:18;;;;;;;27.60;20.20;;;3.50;1.00;;;;;;5048172;28;20446;-59
2021/12/11 09:34:58;;;;;;;32.93;22.60;;;3.60;1.00;;;;;;5052744;28;20449;-59
2021/12/11 09:37:25;;;;;;;28.67;20.40;;;3.50;1.00;;;;;;5048058;28;20525;-60
2021/12/11 09:39:56;;;;;;;30.50;21.87;;;3.60;1.00;;;;;;5048288;28;21092;-58
2021/12/11 09:42:22;;;;;;;29.47;20.57;;;3.50;1.00;;;;;;5051213;28;20445;-57
2021/12/11 09:44:59;;;;;;;31.33;19.70;;;3.50;1.00;;;;;;5049899;28;20440;-58
2021/12/11 09:47:34;;;;;;;28.97;21.10;;;3.50;1.00;;;;;;5047406;28;20226;-57
2021/12/11 09:50:09;;;;;;;27.27;20.00;;;3.30;1.00;;;;;;5055895;28;20440;-59
2021/12/11 09:52:37;;;;;;;31.03;21.00;;;3.20;1.00;;;;;;5051405;28;20473;-59
2021/12/11 09:55:12;;;;;;;29.10;19.80;;;3.10;1.00;;;;;;5038871;28;20445;-58
2021/12/11 09:57:43;;;;;;;27.97;19.63;;;3.10;1.00;;;;;;5056553;28;20450;-58
2021/12/11 10:00:20;;;;;;;28.33;18.37;;;3.40;1.00;;;;;;5056394;28;20525;-61
2021/12/11 10:02:46;;;;;;;31.13;20.53;;;3.40;1.00;;;;;;5057721;28;20459;-58
2021/12/11 10:05:37;;;;;;;31.80;21.27;;;3.20;1.00;;;;;;5056862;28;20529;-60
2021/12/11 10:11:18;;;;;;;34.40;23.93;;;2.90;1.00;;;;;;5063848;28;20876;-59
2021/12/11 10:13:49;;;;;;;32.37;21.47;;;2.90;1.00;;;;;;5048644;28;20474;-58
2021/12/11 10:16:17;;;;;;;32.20;21.00;;;2.80;1.00;;;;;;5057412;28;20653;-59
2021/12/11 10:18:45;;;;;;;30.03;22.47;;;2.90;1.00;;;;;;5054066;28;20989;-59
2021/12/11 10:21:26;;;;;;;32.87;22.57;;;2.90;1.00;;;;;;5057362;28;20445;-58
2021/12/11 10:23:55;;;;;;;30.40;21.87;;;3.00;1.00;;;;;;5050671;28;20459;-59
2021/12/11 10:26:25;;;;;;;31.73;20.23;;;3.00;1.00;;;;;;5052694;28;20451;-59
2021/12/11 10:28:53;;;;;;;26.80;19.30;;;3.00;1.00;;;;;;5052852;28;20570;-57
2021/12/11 10:31:34;;;;;;;27.27;18.97;;;3.00;1.00;;;;;;5050259;28;20450;-59
2021/12/11 10:34:02;;;;;;;28.17;19.87;;;2.90;1.00;;;;;;5055906;28;20460;-59
2021/12/11 10:36:32;;;;;;;32.27;20.67;;;2.90;1.00;;;;;;5057684;28;20435;-58
2021/12/11 10:39:00;;;;;;;27.00;19.70;;;3.10;1.00;;;;;;5054591;28;20447;-58
2021/12/11 10:41:27;;;;;;;31.33;19.73;;;3.20;1.00;;;;;;5054153;28;20447;-59
2021/12/11 10:43:58;;;;;;;29.53;20.30;;;3.20;1.00;;;;;;5061774;28;20931;-59
2021/12/11 10:46:29;;;;;;;28.10;18.10;;;3.20;1.00;;;;;;5055984;28;20513;-59
2021/12/11 10:48:56;;;;;;;25.73;18.00;;;3.10;1.00;;;;;;5046992;28;20526;-59
2021/12/11 10:51:30;;;;;;;27.53;18.57;;;3.10;1.00;;;;;;5054286;28;20441;-59
2021/12/11 10:53:57;;;;;;;26.40;18.17;;;3.10;1.00;;;;;;5051198;28;20483;-58
2021/12/11 10:56:24;;;;;;;26.57;18.13;;;3.10;1.00;;;;;;5052480;28;20637;-59
2021/12/11 10:58:55;;;;;;;26.80;18.23;;;3.10;1.00;;;;;;5050672;28;20436;-58
2021/12/11 11:01:29;;;;;;;30.63;18.43;;;3.20;1.00;;;;;;5053702;28;20534;-57
2021/12/11 11:03:59;;;;;;;29.33;19.67;;;3.30;1.00;;;;;;5056047;28;20935;-58
2021/12/11 11:06:25;;;;;;;25.23;17.60;;;3.30;1.00;;;;;;5050266;28;20446;-58
2021/12/11 11:08:51;;;;;;;26.80;18.60;;;3.40;1.00;;;;;;5051294;28;20525;-57
2021/12/11 11:11:23;;;;;;;26.43;17.23;;;3.50;1.00;;;;;;5050759;28;20323;-59
2021/12/11 11:13:49;;;;;;;27.00;18.00;;;3.50;1.00;;;;;;5050564;28;20451;-58
2021/12/11 11:16:17;;;;;;;25.30;17.00;;;3.60;1.00;;;;;;5051245;28;20790;-58
2021/12/11 11:18:43;;;;;;;26.40;17.30;;;3.70;1.00;;;;;;5050650;28;20623;-59
2021/12/11 11:21:19;;;;;;;27.73;19.07;;;3.70;1.00;;;;;;5050547;28;20774;-59
2021/12/11 11:23:46;;;;;;;26.70;18.03;;;3.70;1.00;;;;;;5051521;28;20439;-58
2021/12/11 11:26:16;;;;;;;27.63;18.70;;;3.80;1.00;;;;;;5050176;28;20457;-58
2021/12/11 11:28:41;;;;;;;27.70;18.90;;;3.80;1.00;;;;;;5056867;28;20982;-58
2021/12/11 11:31:13;;;;;;;32.30;18.53;;;3.90;1.00;;;;;;5062362;28;20455;-59
2021/12/11 11:33:40;;;;;;;27.00;19.10;;;3.80;1.00;;;;;;5050595;28;20682;-59
2021/12/11 11:36:08;;;;;;;28.60;20.50;;;3.60;1.00;;;;;;5058945;28;20536;-59
2021/12/11 11:38:37;;;;;;;27.57;20.67;;;3.70;1.00;;;;;;5063901;28;20958;-58
2021/12/11 11:41:10;;;;;;;27.87;18.97;;;3.60;1.00;;;;;;5062338;28;21004;-60
2021/12/11 11:43:37;;;;;;;32.63;21.30;;;3.70;1.00;;;;;;5050426;28;20460;-58
2021/12/11 11:46:04;;;;;;;34.07;21.80;;;3.70;1.00;;;;;;5050104;28;20533;-59
2021/12/11 11:48:33;;;;;;;33.57;20.97;;;3.70;1.00;;;;;;5050055;28;20990;-58
2021/12/11 11:51:04;;;;;;;28.80;20.17;;;3.70;1.00;;;;;;5066302;28;20432;-60
2021/12/11 11:53:30;;;;;;;32.97;21.10;;;3.70;1.00;;;;;;5050816;28;20766;-59
2021/12/11 11:56:01;;;;;;;37.33;22.33;;;3.70;1.00;;;;;;5049992;28;20474;-59
2021/12/11 11:58:29;;;;;;;29.50;20.70;;;3.80;1.00;;;;;;5061695;28;20461;-59
2021/12/11 12:01:17;;;;;;;36.10;21.60;;;3.80;1.00;;;;;;5054628;28;20445;-58
2021/12/11 12:03:43;;;;;;;31.80;22.83;;;3.60;1.00;;;;;;5063274;28;20477;-59
2021/12/11 12:06:12;;;;;;;30.13;19.53;;;3.60;1.00;;;;;;5060808;28;20917;-59
2021/12/11 12:08:42;;;;;;;27.20;19.70;;;3.50;1.00;;;;;;5060699;28;20980;-58
2021/12/11 12:11:09;;;;;;;33.10;20.17;;;3.40;1.00;;;;;;5065832;28;21026;-58
2021/12/11 12:13:35;;;;;;;34.77;22.50;;;3.30;1.00;;;;;;5050947;28;20977;-58
2021/12/11 12:16:10;;;;;;;34.70;21.93;;;3.30;1.00;;;;;;5060828;28;20459;-59
2021/12/11 12:18:38;;;;;;;34.33;21.97;;;3.40;1.00;;;;;;5065747;28;20184;-59
2021/12/11 12:21:05;;;;;;;33.87;22.63;;;3.50;1.00;;;;;;5073832;28;20439;-59
2021/12/11 12:23:32;;;;;;;34.43;22.50;;;3.70;1.00;;;;;;5073935;28;20437;-58
2021/12/11 12:26:03;;;;;;;30.47;21.60;;;3.70;1.00;;;;;;5062349;28;20936;-58
2021/12/11 12:28:31;;;;;;;37.10;22.13;;;3.80;1.00;;;;;;5053052;28;21135;-59
2021/12/11 12:31:02;;;;;;;30.53;20.50;;;3.70;1.00;;;;;;5066308;28;20447;-58
2021/12/11 12:33:29;;;;;;;33.93;23.60;;;3.80;1.00;;;;;;5065128;28;20486;-57
2021/12/11 12:35:55;;;;;;;31.30;21.17;;;3.70;1.00;;;;;;5064131;28;20437;-58
2021/12/11 12:38:23;;;;;;;38.77;22.70;;;3.70;1.00;;;;;;5067611;28;20434;-60
2021/12/11 12:41:00;;;;;;;33.37;22.43;;;3.70;1.00;;;;;;5053840;28;20515;-58
2021/12/11 12:46:17;;;;;;;30.63;21.07;;;3.80;1.00;;;;;;5053896;28;20441;-58
2021/12/11 12:48:43;;;;;;;30.77;21.60;;;3.90;1.00;;;;;;5053232;28;20474;-59
2021/12/11 12:51:11;;;;;;;35.53;22.83;;;3.90;1.00;;;;;;5053605;28;20442;-59
2021/12/11 12:53:40;;;;;;;33.73;21.27;;;3.90;1.00;;;;;;5052757;28;20266;-59
2021/12/11 12:56:13;;;;;;;35.80;23.00;;;3.80;1.00;;;;;;5053266;28;20481;-58
2021/12/11 12:59:04;;;;;;;32.00;22.83;;;3.70;1.00;;;;;;5051887;28;20446;-60
2021/12/11 13:01:41;;;;;;;32.73;22.40;;;3.50;1.00;;;;;;5052985;28;20436;-58
2021/12/11 13:04:09;;;;;;;35.20;24.27;;;3.60;1.00;;;;;;5054546;28;20521;-58
2021/12/11 13:06:41;;;;;;;39.80;23.43;;;3.80;1.00;;;;;;5069549;28;20516;-59
2021/12/11 13:09:20;;;;;;;35.40;24.57;;;3.80;1.00;;;;;;5052985;28;20535;-59
2021/12/11 13:12:16;;;;;;;36.87;24.90;;;3.90;1.00;;;;;;5059282;28;20489;-57
2021/12/11 13:14:43;;;;;;;34.73;24.40;;;4.00;1.00;;;;;;5068689;28;20492;-58
2021/12/11 13:17:12;;;;;;;33.27;21.23;;;3.90;1.00;;;;;;5066424;28;20453;-59
2021/12/11 13:19:46;;;;;;;36.47;23.60;;;3.90;1.00;;;;;;5059140;28;20536;-60
2021/12/11 13:22:40;;;;;;;38.70;23.67;;;3.70;1.00;;;;;;5073636;28;20430;-58